Time;durP1;ratioP1;P1;durP2;ratioP2;P2;SDS_P1;SDS_P2;PMS_P1;PMS_P2;Temp;Humidity;BMP_temperature;BMP_pressure;BME280_temperature;BME280_humidity;BME280_pressure;Samples;Min_cycle;Max_cycle;Signal;HPM_P1;HPM_P2
2021/08/28 00:02:07;;;;;;;0.50;0.30;;;14.10;99.90;;;;;;5072024;28;20955;-82
2021/08/28 00:04:34;;;;;;;0.50;0.40;;;14.00;99.90;;;;;;5073240;28;20929;-80
2021/08/28 00:07:01;;;;;;;0.50;0.40;;;14.00;99.90;;;;;;5074067;28;20468;-80
2021/08/28 00:09:28;;;;;;;0.50;0.40;;;13.90;99.90;;;;;;5061713;28;20483;-81
2021/08/28 00:11:56;;;;;;;0.50;0.30;;;13.90;99.90;;;;;;5053264;28;20453;-80
2021/08/28 00:14:23;;;;;;;0.50;0.30;;;13.80;99.90;;;;;;5054139;28;20808;-80
2021/08/28 00:16:50;;;;;;;0.50;0.30;;;13.80;99.90;;;;;;5053582;28;20928;-81
2021/08/28 00:19:16;;;;;;;0.50;0.40;;;13.80;99.90;;;;;;5053762;28;20458;-81
2021/08/28 00:21:43;;;;;;;0.60;0.60;;;13.80;99.90;;;;;;5053659;28;20445;-80
2021/08/28 00:24:10;;;;;;;0.50;0.30;;;13.80;99.90;;;;;;5053371;28;20452;-81
2021/08/28 00:26:37;;;;;;;0.50;0.40;;;13.90;99.90;;;;;;5054056;28;20444;-79
2021/08/28 00:29:05;;;;;;;0.50;0.40;;;13.90;99.90;;;;;;5057940;28;20483;-80
2021/08/28 00:31:31;;;;;;;0.50;0.30;;;14.00;99.90;;;;;;5057096;28;20448;-80
2021/08/28 00:33:58;;;;;;;0.50;0.40;;;14.00;99.90;;;;;;5057367;28;20440;-81
2021/08/28 00:36:25;;;;;;;0.50;0.30;;;14.00;99.90;;;;;;5057600;28;20825;-79
2021/08/28 00:38:52;;;;;;;0.50;0.40;;;14.00;99.90;;;;;;5057929;28;20458;-80
2021/08/28 00:41:18;;;;;;;0.50;0.40;;;14.00;99.90;;;;;;5056868;28;20437;-81
2021/08/28 00:43:45;;;;;;;0.50;0.40;;;14.10;99.90;;;;;;5057412;28;20444;-79
2021/08/28 00:46:13;;;;;;;0.50;0.30;;;14.20;99.90;;;;;;5057708;28;20448;-81
2021/08/28 00:48:40;;;;;;;0.50;0.30;;;14.20;99.90;;;;;;5057550;28;20468;-81
2021/08/28 00:51:09;;;;;;;0.50;0.40;;;14.20;99.90;;;;;;5057360;28;20445;-77
2021/08/28 00:53:36;;;;;;;0.50;0.30;;;14.20;99.90;;;;;;5057301;28;20444;-81
2021/08/28 00:56:03;;;;;;;0.50;0.40;;;14.20;99.90;;;;;;5056215;28;20792;-80
2021/08/28 00:58:30;;;;;;;0.73;0.73;;;14.30;99.90;;;;;;5057326;28;20457;-80
2021/08/28 01:01:01;;;;;;;0.50;0.30;;;14.20;99.90;;;;;;5057025;28;20453;-79
2021/08/28 01:03:32;;;;;;;0.50;0.30;;;14.30;99.90;;;;;;5056719;28;20434;-80
2021/08/28 01:06:04;;;;;;;0.50;0.30;;;14.30;99.90;;;;;;5056726;28;20437;-79
2021/08/28 01:08:38;;;;;;;0.50;0.40;;;14.30;99.90;;;;;;5057074;28;20462;-81
2021/08/28 01:11:13;;;;;;;0.50;0.40;;;14.40;99.90;;;;;;5056518;28;20524;-79
2021/08/28 01:13:41;;;;;;;0.50;0.40;;;14.40;99.90;;;;;;5056618;28;20443;-80
2021/08/28 01:16:10;;;;;;;0.50;0.30;;;14.50;99.90;;;;;;5056732;28;20823;-79
2021/08/28 01:18:40;;;;;;;0.50;0.40;;;14.50;99.90;;;;;;5056044;28;20464;-81
2021/08/28 01:21:17;;;;;;;0.50;0.40;;;14.50;99.90;;;;;;5055950;28;20442;-80
2021/08/28 01:23:45;;;;;;;0.50;0.30;;;14.50;99.90;;;;;;5056837;28;20895;-80
2021/08/28 01:26:18;;;;;;;0.50;0.40;;;14.50;99.90;;;;;;5056877;28;20815;-81
2021/08/28 01:28:48;;;;;;;0.50;0.30;;;14.50;99.90;;;;;;5056007;28;20454;-78
2021/08/28 01:31:17;;;;;;;1.50;0.70;;;14.50;99.90;;;;;;5056514;28;20445;-81
2021/08/28 01:33:46;;;;;;;0.50;0.30;;;14.50;99.90;;;;;;5056527;28;20445;-80
2021/08/28 01:36:14;;;;;;;0.50;0.40;;;14.60;99.90;;;;;;5056586;28;20439;-79
2021/08/28 01:38:43;;;;;;;0.50;0.50;;;14.50;99.90;;;;;;5056037;28;20461;-80
2021/08/28 01:41:10;;;;;;;1.03;1.03;;;14.50;99.90;;;;;;5056193;28;20446;-78
2021/08/28 01:43:37;;;;;;;0.50;0.30;;;14.50;99.90;;;;;;5056315;28;20460;-80
2021/08/28 01:46:05;;;;;;;0.50;0.30;;;14.50;99.90;;;;;;5056743;28;20441;-79
2021/08/28 01:48:34;;;;;;;0.50;0.30;;;14.50;99.90;;;;;;5055660;28;20457;-79
2021/08/28 01:51:01;;;;;;;0.50;0.40;;;14.50;99.90;;;;;;5056504;28;20473;-80
2021/08/28 01:53:28;;;;;;;0.50;0.30;;;14.60;99.90;;;;;;5056672;28;20445;-80
2021/08/28 01:55:55;;;;;;;0.50;0.30;;;14.50;99.90;;;;;;5056666;28;20444;-80
2021/08/28 01:58:22;;;;;;;0.50;0.40;;;14.50;99.90;;;;;;5056053;28;20441;-81
2021/08/28 02:00:49;;;;;;;0.50;0.30;;;14.60;99.90;;;;;;5056146;28;20410;-80
2021/08/28 02:03:16;;;;;;;0.50;0.30;;;14.60;99.90;;;;;;5056438;28;20799;-80
2021/08/28 02:05:49;;;;;;;0.50;0.40;;;14.60;99.90;;;;;;5055996;28;20468;-79
2021/08/28 02:08:23;;;;;;;0.50;0.30;;;14.60;99.90;;;;;;5055734;28;20430;-80
2021/08/28 02:10:55;;;;;;;0.50;0.37;;;14.60;99.90;;;;;;5055457;28;20645;-80
2021/08/28 02:13:27;;;;;;;0.50;0.30;;;14.60;99.90;;;;;;5056223;28;20429;-81
2021/08/28 02:15:59;;;;;;;0.50;0.40;;;14.60;99.90;;;;;;5056014;28;20442;-79
2021/08/28 02:18:33;;;;;;;0.50;0.30;;;14.70;99.90;;;;;;5055351;28;20468;-79
2021/08/28 02:21:04;;;;;;;0.50;0.40;;;14.70;99.90;;;;;;5055510;28;20429;-80
2021/08/28 02:23:36;;;;;;;0.50;0.40;;;14.60;99.90;;;;;;5055859;28;20910;-79
2021/08/28 02:26:05;;;;;;;0.50;0.40;;;14.70;99.90;;;;;;5054906;28;20457;-79
2021/08/28 02:28:37;;;;;;;0.50;0.40;;;14.70;99.90;;;;;;5055131;28;20808;-80
2021/08/28 02:31:06;;;;;;;0.50;0.40;;;14.70;99.90;;;;;;5054888;28;20461;-80
2021/08/28 02:33:36;;;;;;;0.50;0.30;;;14.70;99.90;;;;;;5055514;28;20442;-79
2021/08/28 02:36:05;;;;;;;0.50;0.40;;;14.70;99.90;;;;;;5055693;28;20789;-80
2021/08/28 02:38:33;;;;;;;0.50;0.40;;;14.70;99.90;;;;;;5054474;28;20464;-79
2021/08/28 02:41:03;;;;;;;0.50;0.40;;;14.80;99.90;;;;;;5054658;28;20429;-80
2021/08/28 02:43:31;;;;;;;0.50;0.40;;;14.80;99.90;;;;;;5054455;28;20455;-80
2021/08/28 02:45:58;;;;;;;0.50;0.30;;;14.80;99.90;;;;;;5055064;28;20441;-79
2021/08/28 02:48:29;;;;;;;0.50;0.40;;;14.80;99.90;;;;;;5054440;28;20458;-79
2021/08/28 02:50:58;;;;;;;0.50;0.30;;;14.70;99.90;;;;;;5052891;28;21018;-79
2021/08/28 02:53:29;;;;;;;0.50;0.30;;;14.80;99.90;;;;;;5054316;28;20441;-80
2021/08/28 02:55:58;;;;;;;0.50;0.40;;;14.70;99.90;;;;;;5054381;28;20452;-79
2021/08/28 02:58:24;;;;;;;0.50;0.30;;;14.80;99.90;;;;;;5054160;28;20462;-79
2021/08/28 03:00:52;;;;;;;0.50;0.30;;;14.80;99.90;;;;;;5053794;28;20425;-79
2021/08/28 03:03:20;;;;;;;0.50;0.30;;;14.80;99.90;;;;;;5054589;28;20437;-81
2021/08/28 03:05:49;;;;;;;1.63;1.53;;;14.80;99.90;;;;;;5054559;28;20436;-79
2021/08/28 03:08:18;;;;;;;0.50;0.30;;;14.80;99.90;;;;;;5054192;28;20454;-79
2021/08/28 03:10:47;;;;;;;0.50;0.50;;;14.80;99.90;;;;;;5053455;28;20465;-79
2021/08/28 03:13:14;;;;;;;0.50;0.40;;;14.80;99.90;;;;;;5054816;28;20452;-80
2021/08/28 03:15:43;;;;;;;0.50;0.30;;;14.80;99.90;;;;;;5054237;28;20453;-80
2021/08/28 03:18:11;;;;;;;0.50;0.30;;;14.80;99.90;;;;;;5053941;28;20505;-80
2021/08/28 03:20:39;;;;;;;0.50;0.30;;;14.70;99.90;;;;;;5053599;28;20443;-81
2021/08/28 03:23:07;;;;;;;0.50;0.30;;;14.80;99.90;;;;;;5054335;28;20497;-80
2021/08/28 03:25:34;;;;;;;0.50;0.30;;;14.80;99.90;;;;;;5054122;28;20444;-80
2021/08/28 03:28:03;;;;;;;0.50;0.40;;;14.80;99.90;;;;;;5054216;28;20437;-79
2021/08/28 03:30:30;;;;;;;0.50;0.30;;;14.80;99.90;;;;;;5052985;28;20469;-79
2021/08/28 03:32:57;;;;;;;0.50;0.30;;;14.80;99.90;;;;;;5054591;28;20437;-80
2021/08/28 03:35:25;;;;;;;0.50;0.40;;;14.80;99.90;;;;;;5053951;28;20445;-79
2021/08/28 03:37:53;;;;;;;0.50;0.30;;;14.80;99.90;;;;;;5053958;28;20434;-80
2021/08/28 03:40:19;;;;;;;0.50;0.30;;;14.80;99.90;;;;;;5053406;28;20457;-80
2021/08/28 03:42:46;;;;;;;0.50;0.30;;;14.80;99.90;;;;;;5053366;28;20803;-79
2021/08/28 03:45:14;;;;;;;0.50;0.30;;;14.80;99.90;;;;;;5053390;28;20445;-80
2021/08/28 03:47:44;;;;;;;0.50;0.30;;;14.80;99.90;;;;;;5054363;28;20437;-79
2021/08/28 03:50:13;;;;;;;0.50;0.40;;;14.80;99.90;;;;;;5053313;28;20485;-79
2021/08/28 03:52:39;;;;;;;0.50;0.30;;;14.80;99.90;;;;;;5053685;28;20440;-78
2021/08/28 03:55:07;;;;;;;0.50;0.30;;;14.80;99.90;;;;;;5054113;28;20445;-79
2021/08/28 03:57:33;;;;;;;0.50;0.30;;;14.80;99.90;;;;;;5053042;28;20479;-79
2021/08/28 04:00:00;;;;;;;0.50;0.50;;;14.80;99.90;;;;;;5053594;28;20838;-79
2021/08/28 04:02:28;;;;;;;0.50;0.30;;;14.80;99.90;;;;;;5054539;28;20456;-80
2021/08/28 04:04:55;;;;;;;0.50;0.30;;;14.80;99.90;;;;;;5057585;28;20433;-80
2021/08/28 04:07:22;;;;;;;0.50;0.33;;;14.80;99.90;;;;;;5057446;28;20452;-80
2021/08/28 04:09:48;;;;;;;0.50;0.30;;;14.80;99.90;;;;;;5057585;28;20835;-80
2021/08/28 04:12:15;;;;;;;0.50;0.30;;;14.70;99.90;;;;;;5057230;28;20447;-79
2021/08/28 04:14:42;;;;;;;0.50;0.30;;;14.70;99.90;;;;;;5057846;28;20445;-81
2021/08/28 04:17:09;;;;;;;0.50;0.30;;;14.70;99.90;;;;;;5057916;28;20441;-81
2021/08/28 04:19:37;;;;;;;0.50;0.30;;;14.70;99.90;;;;;;5057272;28;20468;-81
2021/08/28 04:22:04;;;;;;;0.50;0.33;;;14.80;99.90;;;;;;5058207;28;20444;-81
2021/08/28 04:24:31;;;;;;;0.50;0.30;;;14.70;99.90;;;;;;5057992;28;20448;-82
2021/08/28 04:26:57;;;;;;;0.50;0.30;;;14.70;99.90;;;;;;5057743;28;20766;-81
2021/08/28 04:29:24;;;;;;;0.50;0.50;;;14.70;99.90;;;;;;5064942;28;20519;-83
2021/08/28 04:31:51;;;;;;;0.50;0.40;;;14.70;99.90;;;;;;5065061;28;20488;-80
2021/08/28 04:34:17;;;;;;;0.50;0.50;;;14.80;99.90;;;;;;5065808;28;20437;-80
2021/08/28 04:36:46;;;;;;;0.50;0.40;;;14.80;99.90;;;;;;5065091;28;20433;-80
2021/08/28 04:39:13;;;;;;;0.50;0.30;;;14.70;99.90;;;;;;5064905;28;20466;-79
2021/08/28 04:41:39;;;;;;;0.50;0.30;;;14.70;99.90;;;;;;5063991;28;20441;-80
2021/08/28 04:44:06;;;;;;;0.70;0.40;;;14.70;99.90;;;;;;5064976;28;20819;-79
2021/08/28 04:46:33;;;;;;;0.50;0.30;;;14.70;99.90;;;;;;5064726;28;20448;-80
2021/08/28 04:49:00;;;;;;;0.50;0.40;;;14.70;99.90;;;;;;5064695;28;20463;-79
2021/08/28 04:51:26;;;;;;;0.50;0.30;;;14.60;99.90;;;;;;5063277;28;20974;-81
2021/08/28 04:53:55;;;;;;;0.50;0.40;;;14.60;99.90;;;;;;5063989;28;20452;-79
2021/08/28 04:56:21;;;;;;;0.50;0.30;;;14.60;99.90;;;;;;5063766;28;20444;-80
2021/08/28 04:58:48;;;;;;;0.50;0.40;;;14.60;99.90;;;;;;5061621;28;20469;-79
2021/08/28 05:01:15;;;;;;;0.50;0.30;;;14.60;99.90;;;;;;5062869;28;20444;-80
2021/08/28 05:03:41;;;;;;;1.57;1.57;;;14.60;99.90;;;;;;5061370;28;20957;-78
2021/08/28 05:06:09;;;;;;;0.50;0.40;;;14.60;99.90;;;;;;5060983;28;20516;-78
2021/08/28 05:08:35;;;;;;;0.50;0.30;;;14.60;99.90;;;;;;5060641;28;20461;-80
2021/08/28 05:11:03;;;;;;;0.50;0.40;;;14.70;99.90;;;;;;5060225;28;20484;-78
2021/08/28 05:13:30;;;;;;;0.50;0.30;;;14.70;99.90;;;;;;5059508;28;20452;-78
2021/08/28 05:15:57;;;;;;;0.50;0.30;;;14.70;99.90;;;;;;5058453;28;20460;-79
2021/08/28 05:18:24;;;;;;;0.50;0.30;;;14.70;99.90;;;;;;5059606;28;20442;-76
2021/08/28 05:20:51;;;;;;;0.50;0.30;;;14.70;99.90;;;;;;5060043;28;20961;-79
2021/08/28 05:23:18;;;;;;;0.50;0.30;;;14.70;99.90;;;;;;5060976;28;20784;-79
2021/08/28 05:25:44;;;;;;;0.50;0.30;;;14.70;99.90;;;;;;5060830;28;20442;-81
2021/08/28 05:28:12;;;;;;;0.50;0.30;;;14.80;99.90;;;;;;5059083;28;20449;-79
2021/08/28 05:30:39;;;;;;;0.50;0.30;;;14.90;99.90;;;;;;5059511;28;20480;-79
2021/08/28 05:33:06;;;;;;;0.50;0.30;;;14.90;99.90;;;;;;5059821;28;20445;-81
2021/08/28 05:35:33;;;;;;;0.50;0.33;;;14.90;99.90;;;;;;5059897;28;20456;-79
2021/08/28 05:37:59;;;;;;;0.50;0.30;;;14.90;99.90;;;;;;5059773;28;20450;-79
2021/08/28 05:40:26;;;;;;;0.50;0.30;;;14.90;99.90;;;;;;5059446;28;20465;-80
2021/08/28 05:42:53;;;;;;;0.50;0.30;;;14.90;99.90;;;;;;5060623;28;20444;-79
2021/08/28 05:45:21;;;;;;;0.60;0.60;;;14.90;99.90;;;;;;5060972;28;20438;-79
2021/08/28 05:47:48;;;;;;;0.50;0.30;;;14.90;99.90;;;;;;5060524;28;20455;-80
2021/08/28 05:50:14;;;;;;;0.50;0.40;;;14.90;99.90;;;;;;5061377;28;20468;-77
2021/08/28 05:52:41;;;;;;;1.07;0.97;;;14.90;99.90;;;;;;5061276;28;20438;-79
2021/08/28 05:55:10;;;;;;;1.00;1.00;;;15.00;99.90;;;;;;5061238;28;20438;-78
2021/08/28 05:57:37;;;;;;;0.50;0.30;;;15.00;99.90;;;;;;5060621;28;20445;-78
2021/08/28 06:00:05;;;;;;;0.50;0.30;;;15.00;99.90;;;;;;5063427;22;20924;-80
2021/08/28 06:02:36;;;;;;;0.50;0.30;;;15.10;99.90;;;;;;5047645;28;20452;-81
2021/08/28 06:05:05;;;;;;;0.50;0.30;;;15.10;99.90;;;;;;5056965;28;20434;-80
2021/08/28 06:07:32;;;;;;;0.50;0.30;;;15.10;99.90;;;;;;5056845;28;20441;-80
2021/08/28 06:09:59;;;;;;;0.50;0.40;;;15.20;99.90;;;;;;5056786;28;20457;-79
2021/08/28 06:12:26;;;;;;;0.50;0.30;;;15.20;99.90;;;;;;5055680;28;20500;-81
2021/08/28 06:14:52;;;;;;;0.50;0.30;;;15.30;99.90;;;;;;5056845;28;20434;-81
2021/08/28 06:17:19;;;;;;;0.50;0.50;;;15.40;99.90;;;;;;5055997;28;20434;-81
2021/08/28 06:19:47;;;;;;;0.50;0.50;;;15.50;99.90;;;;;;5055458;28;20466;-81
2021/08/28 06:22:14;;;;;;;0.50;0.30;;;15.50;99.90;;;;;;5056389;28;20426;-81
2021/08/28 06:24:41;;;;;;;0.50;0.30;;;15.50;99.90;;;;;;5056150;28;20450;-80
2021/08/28 06:27:09;;;;;;;0.50;0.30;;;15.50;99.90;;;;;;5056299;28;20523;-81
2021/08/28 06:29:36;;;;;;;1.23;1.00;;;15.50;99.90;;;;;;5057230;28;20974;-80
2021/08/28 06:32:04;;;;;;;0.50;0.30;;;15.50;99.90;;;;;;5055768;28;20937;-81
2021/08/28 06:34:30;;;;;;;3.43;1.33;;;15.50;99.90;;;;;;5056180;28;20438;-80
2021/08/28 06:36:59;;;;;;;0.50;0.40;;;15.50;99.90;;;;;;5056256;28;20446;-81
2021/08/28 06:39:25;;;;;;;0.50;0.30;;;15.50;99.90;;;;;;5056352;28;20461;-81
2021/08/28 06:41:52;;;;;;;0.50;0.40;;;15.50;99.90;;;;;;5055578;28;20444;-77
2021/08/28 06:44:19;;;;;;;0.50;0.30;;;15.50;99.90;;;;;;5055652;28;20441;-81
2021/08/28 06:46:45;;;;;;;1.13;1.00;;;15.60;99.90;;;;;;5055479;28;20453;-80
2021/08/28 06:49:12;;;;;;;0.50;0.30;;;15.50;99.90;;;;;;5056263;28;20465;-80
2021/08/28 06:51:39;;;;;;;0.50;0.30;;;15.50;99.90;;;;;;5055258;28;20474;-80
2021/08/28 06:54:07;;;;;;;0.50;0.30;;;15.60;99.90;;;;;;5056733;28;20452;-80
2021/08/28 06:56:34;;;;;;;0.50;0.30;;;15.70;99.90;;;;;;5056623;28;20448;-80
2021/08/28 06:59:01;;;;;;;0.50;0.40;;;15.80;99.90;;;;;;5055769;28;20441;-81
2021/08/28 07:01:28;;;;;;;0.50;0.30;;;15.80;99.90;;;;;;5055106;28;20442;-80
2021/08/28 07:03:54;;;;;;;0.50;0.30;;;15.80;99.90;;;;;;5055786;28;20446;-78
2021/08/28 07:06:21;;;;;;;0.50;0.30;;;15.80;99.90;;;;;;5055928;28;20433;-80
2021/08/28 07:08:48;;;;;;;0.50;0.30;;;15.80;99.90;;;;;;5055119;28;20445;-77
2021/08/28 07:11:16;;;;;;;0.50;0.40;;;15.90;99.90;;;;;;5055604;28;20480;-80
2021/08/28 07:13:43;;;;;;;0.50;0.40;;;15.90;99.90;;;;;;5055914;28;20461;-80
2021/08/28 07:16:10;;;;;;;0.50;0.30;;;15.90;99.90;;;;;;5055746;28;20452;-81
2021/08/28 07:18:36;;;;;;;0.50;0.40;;;15.90;99.90;;;;;;5054832;28;20438;-80
2021/08/28 07:21:03;;;;;;;0.50;0.47;;;15.90;99.90;;;;;;5054785;28;21042;-80
2021/08/28 07:23:30;;;;;;;0.50;0.30;;;16.00;99.90;;;;;;5055525;28;20896;-82
2021/08/28 07:25:57;;;;;;;0.50;0.40;;;16.10;99.90;;;;;;5055821;28;20442;-81
2021/08/28 07:28:25;;;;;;;0.50;0.30;;;16.20;99.90;;;;;;5055419;28;20448;-81
2021/08/28 07:30:52;;;;;;;0.50;0.40;;;16.30;99.90;;;;;;5054741;28;20484;-78
2021/08/28 07:33:18;;;;;;;0.50;0.40;;;16.30;99.90;;;;;;5055073;28;20460;-79
2021/08/28 07:35:46;;;;;;;0.50;0.30;;;16.30;99.90;;;;;;5055359;28;20442;-80
2021/08/28 07:38:12;;;;;;;0.50;0.30;;;16.30;99.90;;;;;;5060348;28;20457;-80
2021/08/28 07:40:39;;;;;;;0.60;0.60;;;16.30;99.90;;;;;;5063587;28;20974;-81
2021/08/28 07:43:06;;;;;;;0.50;0.40;;;16.30;99.90;;;;;;5062566;28;20464;-80
2021/08/28 07:45:34;;;;;;;0.50;0.30;;;16.20;99.90;;;;;;5061904;28;20469;-81
2021/08/28 07:48:01;;;;;;;0.60;0.60;;;16.20;99.90;;;;;;5061829;28;20441;-78
2021/08/28 07:50:28;;;;;;;0.70;0.70;;;16.20;99.90;;;;;;5061704;28;20461;-81
2021/08/28 07:52:55;;;;;;;0.50;0.30;;;16.30;99.90;;;;;;5061037;28;20477;-77
2021/08/28 07:55:22;;;;;;;0.50;0.30;;;16.40;99.90;;;;;;5061863;28;20429;-81
2021/08/28 07:57:49;;;;;;;0.50;0.30;;;16.50;99.90;;;;;;5060481;28;20453;-81
2021/08/28 08:00:16;;;;;;;0.50;0.30;;;16.50;99.90;;;;;;5060653;28;20838;-79
2021/08/28 08:02:45;;;;;;;0.73;0.70;;;16.60;99.90;;;;;;5062562;28;20441;-81
2021/08/28 08:05:11;;;;;;;0.50;0.40;;;16.70;99.90;;;;;;5061079;28;20448;-81
2021/08/28 08:07:38;;;;;;;0.50;0.50;;;16.70;99.90;;;;;;5062712;28;20973;-81
2021/08/28 08:10:08;;;;;;;0.50;0.30;;;16.60;99.90;;;;;;5060997;28;20465;-81
2021/08/28 08:12:36;;;;;;;0.50;0.40;;;16.50;99.90;;;;;;5061358;28;20470;-82
2021/08/28 08:15:03;;;;;;;0.50;0.30;;;16.40;99.90;;;;;;5061506;28;20442;-81
2021/08/28 08:17:29;;;;;;;0.50;0.30;;;16.30;99.90;;;;;;5061493;28;20439;-81
2021/08/28 08:19:58;;;;;;;0.50;0.30;;;16.30;99.90;;;;;;5061121;28;21001;-81
2021/08/28 08:22:25;;;;;;;0.50;0.40;;;16.40;99.90;;;;;;5061010;28;20437;-81
2021/08/28 08:24:51;;;;;;;0.50;0.40;;;16.60;99.90;;;;;;5060874;28;20441;-81
2021/08/28 08:27:18;;;;;;;0.50;0.30;;;17.00;99.90;;;;;;5062007;28;20946;-81
2021/08/28 08:29:45;;;;;;;0.80;0.60;;;17.70;99.90;;;;;;5061958;28;20472;-82
2021/08/28 08:32:12;;;;;;;0.50;0.40;;;18.50;99.90;;;;;;5061000;28;20475;-82
2021/08/28 08:34:39;;;;;;;0.50;0.30;;;18.90;99.90;;;;;;5061187;28;20443;-81
2021/08/28 08:37:07;;;;;;;0.50;0.30;;;19.10;99.90;;;;;;5061539;28;20443;-82
2021/08/28 08:39:35;;;;;;;0.50;0.30;;;19.10;99.90;;;;;;5061451;28;20475;-82
2021/08/28 08:42:03;;;;;;;0.50;0.30;;;19.20;99.90;;;;;;5061640;28;20932;-81
2021/08/28 08:44:33;;;;;;;0.80;0.70;;;19.60;99.90;;;;;;5061734;28;20444;-81
2021/08/28 08:47:00;;;;;;;0.50;0.30;;;20.50;99.90;;;;;;5061230;28;20437;-79
2021/08/28 08:49:27;;;;;;;0.50;0.30;;;21.00;99.90;;;;;;5059500;28;20461;-82
2021/08/28 08:51:54;;;;;;;0.50;0.30;;;21.50;99.90;;;;;;5057908;28;20470;-80
2021/08/28 08:54:23;;;;;;;0.63;0.63;;;21.50;99.90;;;;;;5058118;28;20931;-81
2021/08/28 08:56:50;;;;;;;0.50;0.30;;;21.10;99.90;;;;;;5058654;28;20527;-82
2021/08/28 08:59:17;;;;;;;1.80;1.70;;;20.80;99.90;;;;;;5057338;28;20482;-81
2021/08/28 09:01:44;;;;;;;0.50;0.30;;;20.20;99.90;;;;;;5057029;28;20925;-81
2021/08/28 09:04:11;;;;;;;0.50;0.30;;;19.70;99.90;;;;;;5058232;28;20429;-81
2021/08/28 09:06:38;;;;;;;0.50;0.40;;;19.50;99.90;;;;;;5057833;28;20490;-80
2021/08/28 09:09:05;;;;;;;0.50;0.30;;;19.10;99.90;;;;;;5057613;28;20427;-81
2021/08/28 09:11:33;;;;;;;0.50;0.30;;;18.70;99.90;;;;;;5056935;28;20475;-81
2021/08/28 09:14:16;;;;;;;0.50;0.30;;;18.30;99.90;;;;;;5057721;28;20453;-81
2021/08/28 09:16:43;;;;;;;0.50;0.30;;;18.10;99.90;;;;;;5055066;28;20950;-80
2021/08/28 09:19:09;;;;;;;0.50;0.30;;;18.00;99.90;;;;;;5056852;28;20465;-81
2021/08/28 09:21:36;;;;;;;0.50;0.30;;;17.90;99.90;;;;;;5057363;28;20943;-81
2021/08/28 09:24:06;;;;;;;0.50;0.30;;;18.00;99.90;;;;;;5057462;28;20427;-81
2021/08/28 09:26:35;;;;;;;0.70;0.50;;;18.10;99.90;;;;;;5057410;28;20955;-81
2021/08/28 09:29:04;;;;;;;0.70;0.70;;;18.30;99.90;;;;;;5057723;28;20921;-82
2021/08/28 09:31:42;;;;;;;0.50;0.30;;;18.30;99.90;;;;;;5056595;28;20479;-81
2021/08/28 09:34:21;;;;;;;0.50;0.30;;;18.40;99.90;;;;;;5056871;28;20458;-81
2021/08/28 09:36:53;;;;;;;1.33;0.93;;;18.30;99.90;;;;;;5057221;28;20427;-80
2021/08/28 09:39:20;;;;;;;0.50;0.30;;;17.90;99.90;;;;;;5056633;28;20460;-81
2021/08/28 09:41:54;;;;;;;0.50;0.40;;;17.40;99.90;;;;;;5056394;28;20434;-81
2021/08/28 09:44:22;;;;;;;1.27;1.17;;;17.20;99.90;;;;;;5057474;28;20969;-82
2021/08/28 09:46:49;;;;;;;0.50;0.30;;;16.90;99.90;;;;;;5059671;28;20505;-81
2021/08/28 09:49:24;;;;;;;0.50;0.40;;;16.70;99.90;;;;;;5058908;28;20454;-81
2021/08/28 09:51:51;;;;;;;0.50;0.40;;;16.30;99.90;;;;;;5060794;28;20546;-81
2021/08/28 09:54:22;;;;;;;0.50;0.33;;;16.30;99.90;;;;;;5061012;28;20437;-81
2021/08/28 09:57:01;;;;;;;0.60;0.50;;;16.20;99.90;;;;;;5060233;28;20440;-80
2021/08/28 09:59:28;;;;;;;0.50;0.30;;;16.00;99.90;;;;;;5060322;28;20465;-81
2021/08/28 10:01:55;;;;;;;0.50;0.30;;;15.90;99.90;;;;;;5059549;28;20414;-80
2021/08/28 10:04:23;;;;;;;0.50;0.37;;;15.90;99.90;;;;;;5060287;28;20430;-82
2021/08/28 10:06:50;;;;;;;0.50;0.30;;;15.90;99.90;;;;;;5060507;28;20436;-81
2021/08/28 10:09:18;;;;;;;0.50;0.30;;;15.90;99.90;;;;;;5058498;28;20472;-82
2021/08/28 10:11:47;;;;;;;0.50;0.30;;;16.00;99.90;;;;;;5059292;28;20998;-81
2021/08/28 10:14:16;;;;;;;0.50;0.30;;;16.10;99.90;;;;;;5058398;28;20452;-81
2021/08/28 10:16:45;;;;;;;0.50;0.37;;;16.20;99.90;;;;;;5059345;28;20437;-81
2021/08/28 10:19:14;;;;;;;0.53;0.30;;;16.50;99.90;;;;;;5058312;28;20462;-81
2021/08/28 10:21:42;;;;;;;0.50;0.30;;;16.70;99.90;;;;;;5058417;28;20441;-81
2021/08/28 10:24:09;;;;;;;0.50;0.30;;;16.90;99.90;;;;;;5059339;28;20439;-81
2021/08/28 10:26:36;;;;;;;0.50;0.30;;;16.90;99.90;;;;;;5059663;28;20441;-82
2021/08/28 10:29:05;;;;;;;0.50;0.40;;;17.00;99.90;;;;;;5058356;28;20943;-81
2021/08/28 10:31:33;;;;;;;0.50;0.30;;;17.20;99.90;;;;;;5057659;28;20951;-81
2021/08/28 10:34:01;;;;;;;0.50;0.40;;;17.50;99.90;;;;;;5059016;28;20447;-82
2021/08/28 10:36:28;;;;;;;0.50;0.30;;;17.80;99.90;;;;;;5059114;28;20442;-81
2021/08/28 10:38:56;;;;;;;0.50;0.30;;;17.90;99.90;;;;;;5058525;28;20993;-81
2021/08/28 10:41:24;;;;;;;0.50;0.40;;;18.00;99.90;;;;;;5058327;28;20442;-82
2021/08/28 10:43:52;;;;;;;0.50;0.30;;;18.20;99.90;;;;;;5059736;28;20445;-82
2021/08/28 10:46:20;;;;;;;0.50;0.40;;;18.20;99.90;;;;;;5058882;28;20446;-81
2021/08/28 10:48:57;;;;;;;0.50;0.30;;;18.20;99.90;;;;;;5058441;28;20438;-81
2021/08/28 10:51:25;;;;;;;0.50;0.30;;;18.20;99.90;;;;;;5057521;28;20438;-81
2021/08/28 10:53:54;;;;;;;0.50;0.30;;;18.00;99.90;;;;;;5057910;28;20477;-82
2021/08/28 10:56:34;;;;;;;0.50;0.30;;;17.90;99.90;;;;;;5058771;28;20442;-81
2021/08/28 10:59:17;;;;;;;0.50;0.30;;;17.80;99.90;;;;;;5058466;28;20434;-81
2021/08/28 11:01:57;;;;;;;0.50;0.30;;;17.60;99.90;;;;;;5058691;28;20827;-82
2021/08/28 11:04:33;;;;;;;0.50;0.40;;;17.50;99.90;;;;;;5057049;28;20438;-80
2021/08/28 11:07:20;;;;;;;0.50;0.40;;;17.40;99.90;;;;;;5056673;28;21077;-82
2021/08/28 11:10:15;;;;;;;0.50;0.30;;;17.10;99.90;;;;;;5057643;28;20466;-81
2021/08/28 11:12:47;;;;;;;0.50;0.30;;;16.90;99.90;;;;;;5058466;28;20489;-81
2021/08/28 11:15:39;;;;;;;4.43;1.43;;;16.90;99.90;;;;;;5058292;28;20448;-81
2021/08/28 11:18:08;;;;;;;0.50;0.40;;;17.10;99.90;;;;;;5059503;28;20442;-81
2021/08/28 11:20:39;;;;;;;0.50;0.30;;;17.80;99.90;;;;;;5058384;28;20468;-81
2021/08/28 11:23:09;;;;;;;0.50;0.30;;;18.50;99.90;;;;;;5056955;28;20447;-81
2021/08/28 11:25:37;;;;;;;0.50;0.30;;;19.30;99.90;;;;;;5057175;28;20472;-81
2021/08/28 11:28:05;;;;;;;0.50;0.30;;;20.00;99.90;;;;;;5057430;28;20447;-81
2021/08/28 11:30:53;;;;;;;0.50;0.30;;;20.90;99.90;;;;;;5056882;28;20535;-82
2021/08/28 11:33:23;;;;;;;0.50;0.30;;;21.70;99.90;;;;;;5057229;28;20469;-81
2021/08/28 11:35:53;;;;;;;0.50;0.30;;;22.20;99.90;;;;;;5057559;28;20434;-81
2021/08/28 11:38:23;;;;;;;0.50;0.30;;;22.30;99.90;;;;;;5057335;28;20939;-81
2021/08/28 11:40:58;;;;;;;0.50;0.30;;;22.00;99.90;;;;;;5056936;28;20504;-81
2021/08/28 11:43:31;;;;;;;0.50;0.30;;;21.70;99.90;;;;;;5056635;28;20420;-81
2021/08/28 11:46:03;;;;;;;0.50;0.50;;;21.20;99.90;;;;;;5057315;28;20429;-81
2021/08/28 11:48:31;;;;;;;0.50;0.30;;;20.70;99.90;;;;;;5056776;28;20451;-81
2021/08/28 11:50:59;;;;;;;0.50;0.30;;;20.20;99.90;;;;;;5056706;28;20517;-81
2021/08/28 11:53:28;;;;;;;0.50;0.40;;;19.90;99.90;;;;;;5056050;28;20488;-81
2021/08/28 11:56:05;;;;;;;0.50;0.30;;;19.80;99.90;;;;;;5056684;28;20995;-81
2021/08/28 11:58:32;;;;;;;0.60;0.40;;;20.10;99.90;;;;;;5056207;28;20937;-81
2021/08/28 12:00:59;;;;;;;0.50;0.40;;;20.80;99.90;;;;;;5098961;22;20487;-86
2021/08/28 12:03:26;;;;;;;2.30;0.93;;;21.10;99.90;;;;;;5033962;28;20433;-87
2021/08/28 12:05:54;;;;;;;0.50;0.30;;;21.50;99.90;;;;;;5026951;28;20456;-87
2021/08/28 12:08:22;;;;;;;2.47;2.30;;;21.60;99.90;;;;;;5023343;28;20447;-86
2021/08/28 12:10:49;;;;;;;0.50;0.30;;;21.70;99.90;;;;;;5040801;28;20489;-85
2021/08/28 12:13:16;;;;;;;0.50;0.30;;;21.80;99.90;;;;;;5042997;28;20475;-87
2021/08/28 12:15:47;;;;;;;0.50;0.30;;;21.90;99.90;;;;;;5042768;28;20442;-87
2021/08/28 12:18:27;;;;;;;0.50;0.40;;;21.90;99.90;;;;;;5042845;28;20419;-87
2021/08/28 12:20:54;;;;;;;0.50;0.30;;;22.10;99.90;;;;;;5041482;28;20462;-87
2021/08/28 12:23:22;;;;;;;0.50;0.30;;;21.90;99.90;;;;;;5042773;28;20442;-87
2021/08/28 12:25:49;;;;;;;0.50;0.40;;;21.80;99.90;;;;;;5045419;28;20446;-83
2021/08/28 12:28:15;;;;;;;0.50;0.30;;;21.70;99.90;;;;;;5044645;28;20439;-87
2021/08/28 12:30:43;;;;;;;0.90;0.90;;;21.50;99.90;;;;;;5045443;28;20461;-84
2021/08/28 12:33:13;;;;;;;0.50;0.30;;;21.30;99.90;;;;;;5044923;28;20477;-86
2021/08/28 12:35:40;;;;;;;0.50;0.30;;;21.20;99.90;;;;;;5045992;28;20957;-88
2021/08/28 12:38:16;;;;;;;0.50;0.30;;;21.40;99.90;;;;;;5045000;28;20794;-86
2021/08/28 12:40:44;;;;;;;0.50;0.30;;;21.50;99.90;;;;;;5045321;28;20564;-86
2021/08/28 12:43:11;;;;;;;0.50;0.30;;;21.40;99.90;;;;;;5047696;28;20470;-88
2021/08/28 12:45:38;;;;;;;0.50;0.30;;;21.10;99.90;;;;;;5046519;28;20444;-87
2021/08/28 12:48:06;;;;;;;0.50;0.30;;;20.60;99.90;;;;;;5045878;28;20476;-86
2021/08/28 12:50:33;;;;;;;1.90;1.17;;;19.80;99.90;;;;;;5044905;28;20979;-87
2021/08/28 12:53:06;;;;;;;0.50;0.30;;;19.10;99.90;;;;;;5044907;28;20471;-86
2021/08/28 12:55:33;;;;;;;0.50;0.30;;;18.60;99.90;;;;;;5046191;28;20476;-85